Genesis Eagle — WDG9347 — position and weather

sailwx.info

Track history (hours):
 
Tides and Currents Weather Stations Pressure Air Temp Water Temp Dewpoint Dewpoint Depression Visibility Wind Speed Wind Dir Waves Ship Positions

Genesis Eagle

Owner: Genesis Marine, LLC, Houston, TX. More information available from US FCC via Universal Licensing System and Coast Guard Vessel Documentation Center.

Last reported at 2018-Jul-23 01:53 UTC. Time now 2018-Jul-23 07:36 UTC.
Position N 39°44' W 073°60'.

Length 35 m; draft 8.3 m.

Type: Tug. MMSI: 338131000.

Date/timePositionNaut miles runAvg speedWind from/ knotsBaromVisibWave heightAir tempDewpointWater temp
2018-Jul-23 01:53N 39°44' W 073°60'4 8.8
2018-Jul-23 01:29N 39°40' W 074°01'4 8.8
2018-Jul-23 01:00N 39°36' W 074°03'4 8.9
2018-Jul-23 00:30N 39°32' W 074°06'65 5.1
2018-Jul-22 11:46N 39°24' W 075°30'4 8.3
2018-Jul-22 11:19N 39°27' W 075°33'2 7.7
2018-Jul-22 11:01N 39°29' W 075°34'4 7.9
2018-Jul-22 10:30N 39°33' W 075°33'4 7.8
2018-Jul-22 10:00N 39°36' W 075°34'4 7.3
2018-Jul-22 09:30N 39°40' W 075°32'4 7.9
2018-Jul-22 08:59N 39°44' W 075°30'4 8.2
2018-Jul-22 08:29N 39°47' W 075°28'4 8.7
2018-Jul-22 08:00N 39°49' W 075°23'4 8.1
2018-Jul-22 07:30N 39°51' W 075°18'2 3.0
2018-Jul-22 07:00N 39°51' W 075°16'0 0.0
2018-Jul-22 06:30N 39°51' W 075°16'0 0.0
2018-Jul-22 06:00N 39°51' W 075°16'0 0.0
2018-Jul-22 05:27N 39°51' W 075°16'0 0.0
2018-Jul-22 05:00N 39°51' W 075°16'0 0.0
2018-Jul-22 04:27N 39°51' W 075°16'0 0.0
2018-Jul-22 04:00N 39°51' W 075°16'0 0.0
2018-Jul-22 03:27N 39°51' W 075°16'0 0.0
2018-Jul-22 03:00N 39°51' W 075°16'0 0.0
2018-Jul-22 02:30N 39°51' W 075°16'0 0.0
2018-Jul-22 02:00N 39°51' W 075°16'0 0.0
2018-Jul-22 01:30N 39°51' W 075°16'0 0.0
2018-Jul-22 01:00N 39°51' W 075°16'0 0.0
2018-Jul-22 00:30N 39°51' W 075°16'0 0.0
2018-Jul-22 00:00N 39°51' W 075°16'0 0.0
2018-Jul-21 23:30N 39°51' W 075°16'0 0.0
2018-Jul-21 23:00N 39°51' W 075°16'0 0.0
2018-Jul-21 22:27N 39°51' W 075°16'0 0.0
2018-Jul-21 22:00N 39°51' W 075°16'0 0.0
2018-Jul-21 21:24N 39°51' W 075°16'0 0.0
2018-Jul-21 21:00N 39°51' W 075°16'0 0.0
2018-Jul-21 20:30N 39°51' W 075°16'0 0.0
2018-Jul-21 20:00N 39°51' W 075°16'0 0.0
2018-Jul-21 19:30N 39°51' W 075°16'0 0.0
2018-Jul-21 19:00N 39°51' W 075°16'0 0.0
2018-Jul-21 18:30N 39°51' W 075°16'0 0.0
2018-Jul-21 18:00N 39°51' W 075°16'0 0.0
2018-Jul-21 17:30N 39°51' W 075°16'0 0.0
2018-Jul-21 17:00N 39°51' W 075°16'0 0.0
2018-Jul-21 16:30N 39°51' W 075°16'0 0.0
2018-Jul-21 16:00N 39°51' W 075°16'0 0.0
2018-Jul-21 15:30N 39°51' W 075°16'0 0.0
2018-Jul-21 15:00N 39°51' W 075°16'0 0.0
2018-Jul-21 14:30N 39°51' W 075°16'0 0.0
2018-Jul-21 13:30N 39°51' W 075°16'0 0.0
2018-Jul-21 13:00N 39°51' W 075°16'0 0.0
2018-Jul-21 12:30N 39°51' W 075°16'0 0.0
2018-Jul-21 12:00N 39°51' W 075°16'0 0.0
2018-Jul-21 11:30N 39°51' W 075°16'0 0.0
2018-Jul-21 11:00N 39°51' W 075°16'0 0.0
2018-Jul-21 10:30N 39°51' W 075°16'0 0.0
2018-Jul-21 10:00N 39°51' W 075°16'0 0.0
2018-Jul-21 09:30N 39°51' W 075°16'0 0.0
2018-Jul-21 08:57N 39°51' W 075°16'0 0.0
2018-Jul-21 08:30N 39°51' W 075°16'0 0.0
2018-Jul-21 08:00N 39°51' W 075°16'0 0.0
2018-Jul-21 07:30N 39°51' W 075°16'0 0.0
2018-Jul-21 07:00N 39°51' W 075°16'0 0.0
2018-Jul-21 06:30N 39°51' W 075°16'0 0.0
2018-Jul-21 06:00N 39°51' W 075°16'0 0.0
2018-Jul-21 05:30N 39°51' W 075°16'0 0.0
2018-Jul-21 05:00N 39°51' W 075°16'0 0.0
2018-Jul-21 04:30N 39°51' W 075°16'0 0.0
2018-Jul-21 04:00N 39°51' W 075°16'0 0.0
2018-Jul-21 03:30N 39°51' W 075°16'0 0.0
2018-Jul-21 03:00N 39°51' W 075°16'0 0.0
2018-Jul-21 02:30N 39°51' W 075°16'0 0.0
2018-Jul-21 02:00N 39°51' W 075°16'0 0.0
2018-Jul-21 01:30N 39°51' W 075°16'0 0.0
2018-Jul-21 01:00N 39°51' W 075°16'0 0.0
2018-Jul-21 00:30N 39°51' W 075°16'0 0.0
2018-Jul-21 00:00N 39°51' W 075°16'0 0.0
2018-Jul-20 23:30N 39°51' W 075°16'0 0.0
2018-Jul-20 23:00N 39°51' W 075°16'0 0.0
2018-Jul-20 22:30N 39°51' W 075°16'0 0.0
2018-Jul-20 22:00N 39°51' W 075°16'0 0.0
2018-Jul-20 21:30N 39°51' W 075°16'0 0.0
2018-Jul-20 21:00N 39°51' W 075°16'0 0.0
2018-Jul-20 20:30N 39°51' W 075°16'0 0.0
2018-Jul-20 20:00N 39°51' W 075°16'0 0.0
2018-Jul-20 19:30N 39°51' W 075°16'0 0.0
2018-Jul-20 19:00N 39°51' W 075°16'3 5.7
2018-Jul-20 18:30N 39°51' W 075°20'3 6.4
2018-Jul-20 18:00N 39°49' W 075°23'4 7.8
2018-Jul-20 17:26N 39°46' W 075°28'3 7.9
2018-Jul-20 17:00N 39°43' W 075°30'4 7.5
2018-Jul-20 16:30N 39°40' W 075°32'4 7.2
2018-Jul-20 16:00N 39°37' W 075°35'4 7.7
2018-Jul-20 15:30N 39°33' W 075°33'4 7.2
2018-Jul-20 15:00N 39°30' W 075°33'3 6.8
2018-Jul-20 14:30N 39°27' W 075°33'4 7.3
2018-Jul-20 14:00N 39°24' W 075°30'4 7.4
2018-Jul-20 13:30N 39°21' W 075°26'4 7.5
2018-Jul-20 13:01N 39°18' W 075°23'4 7.6
2018-Jul-20 12:30N 39°15' W 075°20'4 7.9
2018-Jul-20 12:00N 39°12' W 075°17'4 8.3
2018-Jul-20 11:30N 39°09' W 075°14'5 8.4
2018-Jul-20 10:56N 39°05' W 075°11'4 8.5
2018-Jul-20 10:29N 39°01' W 075°09'5 8.4
2018-Jul-20 09:52N 38°56' W 075°06'4 9.0
2018-Jul-20 09:23N 38°52' W 075°04'3 8.6
2018-Jul-20 08:59N 38°49' W 075°02'5 8.5
2018-Jul-20 08:24N 38°49' W 074°56'4 9.4
2018-Jul-20 07:57N 38°50' W 074°51'4 9.2
2018-Jul-20 07:29N 38°53' W 074°47'5 9.8
2018-Jul-20 06:59N 38°57' W 074°43'5 9.6
2018-Jul-20 06:30N 39°01' W 074°39'5 9.6
2018-Jul-20 06:00N 39°04' W 074°35'6 9.4
2018-Jul-20 05:23N 39°09' W 074°30'4 9.4
2018-Jul-20 05:00N 39°12' W 074°28'6 9.2
2018-Jul-20 04:21N 39°16' W 074°23'14 8.8
2018-Jul-20 02:48N 39°28' W 074°13'6 9.5
2018-Jul-20 02:08N 39°33' W 074°09'1 9.3
2018-Jul-20 02:01N 39°34' W 074°08'5 9.6
2018-Jul-20 01:27N 39°39' W 074°04'5 9.3
2018-Jul-20 00:57N 39°42' W 074°01'5 9.0
2018-Jul-20 00:23N 39°47' W 073°58'197 8.7
2018-Jul-19 01:48N 41°46' W 070°31'17 8.0
2018-Jul-18 23:40N 42°03' W 070°30'2 9.3
2018-Jul-18 23:27N 42°06' W 070°31'6 9.5
2018-Jul-18 22:50N 42°11' W 070°34'5 9.7
2018-Jul-18 22:22N 42°14' W 070°37'5 9.7
2018-Jul-18 21:51N 42°18' W 070°42'4 9.4
2018-Jul-18 21:28N 42°21' W 070°45'4 8.8
2018-Jul-18 21:00N 42°23' W 070°50'9 6.9
2018-Jul-18 19:39N 42°22' W 071°03'1 5.4
2018-Jul-18 19:30N 42°23' W 071°03'1 0.1
2018-Jul-18 13:27N 42°23' W 071°01'0 0.0
2018-Jul-18 12:42N 42°23' W 071°01'0 0.0
2018-Jul-18 11:33N 42°23' W 071°01'0 0.1
2018-Jul-18 11:30N 42°23' W 071°01'0 0.0
2018-Jul-18 10:28N 42°23' W 071°01'0 0.0
2018-Jul-18 09:59N 42°23' W 071°01'0 0.0
2018-Jul-18 08:23N 42°23' W 071°01'0 0.0
2018-Jul-18 07:54N 42°23' W 071°01'0 0.0
2018-Jul-18 07:29N 42°23' W 071°01'0 0.0
2018-Jul-18 03:32N 42°23' W 071°01'0 0.1
2018-Jul-18 03:29N 42°23' W 071°01'0 0.0
2018-Jul-18 03:00N 42°23' W 071°01'0 0.0
2018-Jul-18 02:26N 42°23' W 071°01'0 0.0
2018-Jul-17 23:28N 42°23' W 071°01'0 0.0
2018-Jul-17 22:59N 42°23' W 071°01'0 0.0
2018-Jul-17 22:25N 42°23' W 071°01'0 0.0
2018-Jul-17 21:59N 42°23' W 071°01'0 0.0
2018-Jul-17 21:30N 42°23' W 071°01'0 0.0
2018-Jul-17 21:00N 42°23' W 071°01'0 0.0
2018-Jul-17 20:30N 42°23' W 071°01'0 0.0
2018-Jul-17 20:00N 42°23' W 071°01'1 1.6
2018-Jul-17 19:30N 42°24' W 071°01'2 3.1
2018-Jul-17 19:00N 42°23' W 071°03'3 5.5
2018-Jul-17 18:30N 42°21' W 071°01'4 7.2
2018-Jul-17 18:00N 42°21' W 070°56'4 7.8
2018-Jul-17 17:30N 42°23' W 070°51'4 8.1
2018-Jul-17 17:00N 42°22' W 070°46'32 8.2
2018-Jul-17 13:02N 42°09' W 070°06'2 7.2
2018-Jul-17 12:46N 42°08' W 070°04'2 6.8
2018-Jul-17 12:30N 42°08' W 070°01'43 7.6
2018-Jul-17 06:50N 41°32' W 069°29'4 8.4
2018-Jul-17 06:21N 41°29' W 069°26'3 8.2
2018-Jul-17 06:00N 41°26' W 069°24'6 8.9
2018-Jul-17 05:21N 41°21' W 069°21'299 7.4
2018-Jul-15 13:12N 38°46' W 074°55'3 7.5
2018-Jul-15 12:46N 38°47' W 074°59'2 7.5
2018-Jul-15 12:30N 38°47' W 075°01'4 7.2
2018-Jul-15 12:00N 38°50' W 075°04'4 7.9
2018-Jul-15 11:30N 38°54' W 075°05'4 8.1
2018-Jul-15 11:00N 38°58' W 075°07'5 8.9
2018-Jul-15 10:29N 39°02' W 075°09'5 9.8
2018-Jul-15 10:00N 39°06' W 075°12'610.6
2018-Jul-15 09:28N 39°11' W 075°16'510.9
2018-Jul-15 09:00N 39°15' W 075°20'510.3
2018-Jul-15 08:31N 39°19' W 075°24'510.5
2018-Jul-15 08:01N 39°23' W 075°29'5 9.7
2018-Jul-15 07:30N 39°27' W 075°33'4 8.5
2018-Jul-15 07:00N 39°31' W 075°33'4 7.0
2018-Jul-15 06:30N 39°34' W 075°34'2 3.4
2018-Jul-15 06:00N 39°35' W 075°36'0 0.0
2018-Jul-15 05:30N 39°35' W 075°36'0 0.0
2018-Jul-15 05:00N 39°35' W 075°36'0 0.0
2018-Jul-15 04:30N 39°35' W 075°36'0 0.0
2018-Jul-15 04:00N 39°35' W 075°36'0 0.0
2018-Jul-15 03:30N 39°35' W 075°36'0 0.0
2018-Jul-15 03:00N 39°35' W 075°36'0 0.0
2018-Jul-15 02:30N 39°35' W 075°36'0 0.0
2018-Jul-15 02:00N 39°35' W 075°36'0 0.0
2018-Jul-15 01:30N 39°35' W 075°36'0 0.0
2018-Jul-15 01:01N 39°35' W 075°36'0 0.0
2018-Jul-15 00:31N 39°35' W 075°36'0 0.0
2018-Jul-15 00:00N 39°35' W 075°36'0 0.0
2018-Jul-14 23:31N 39°35' W 075°36'0 0.0
2018-Jul-14 23:01N 39°35' W 075°36'0 0.0
2018-Jul-14 22:30N 39°35' W 075°36'0 0.0
2018-Jul-14 22:01N 39°35' W 075°36'0 0.0
2018-Jul-14 21:30N 39°35' W 075°36'0 0.0
2018-Jul-14 21:00N 39°35' W 075°36'0 0.0
2018-Jul-14 20:31N 39°35' W 075°36'0 0.0
2018-Jul-14 20:01N 39°35' W 075°36'0 0.0
2018-Jul-14 19:31N 39°35' W 075°36'0 0.0
2018-Jul-14 19:01N 39°35' W 075°36'0 0.0
2018-Jul-14 18:31N 39°35' W 075°36'0 0.0
2018-Jul-14 18:00N 39°35' W 075°36'0 0.0
2018-Jul-14 17:30N 39°35' W 075°36'0 0.0
2018-Jul-14 17:00N 39°35' W 075°36'0 0.0
2018-Jul-14 16:31N 39°35' W 075°36'0 0.0
2018-Jul-14 16:00N 39°35' W 075°36'0 0.0
2018-Jul-14 15:31N 39°35' W 075°36'0 0.0
2018-Jul-14 15:00N 39°35' W 075°36'0 0.0
2018-Jul-14 14:31N 39°35' W 075°36'0 0.0
2018-Jul-14 13:30N 39°35' W 075°36'0 0.0
2018-Jul-14 13:00N 39°35' W 075°36'0 0.0
2018-Jul-14 12:30N 39°35' W 075°36'0 0.0
2018-Jul-14 12:00N 39°35' W 075°36'0 0.0
2018-Jul-14 11:30N 39°35' W 075°36'0 0.0
2018-Jul-14 11:00N 39°35' W 075°36'0 0.0
2018-Jul-14 10:30N 39°35' W 075°36'0 0.0
2018-Jul-14 10:00N 39°35' W 075°36'0 0.0
2018-Jul-14 09:30N 39°35' W 075°36'0 0.0
2018-Jul-14 09:00N 39°35' W 075°36'0 0.0
2018-Jul-14 08:30N 39°35' W 075°36'0 0.0
2018-Jul-14 08:00N 39°35' W 075°36'0 0.0
2018-Jul-14 07:30N 39°35' W 075°36'0 0.0
2018-Jul-14 07:00N 39°35' W 075°36'0 0.0
2018-Jul-14 06:30N 39°35' W 075°36'0 0.0
2018-Jul-14 06:00N 39°35' W 075°36'0 0.0
2018-Jul-14 05:30N 39°35' W 075°36'0 0.0
2018-Jul-14 05:00N 39°35' W 075°36'0 0.0
2018-Jul-14 04:30N 39°35' W 075°36'0 0.0
2018-Jul-14 04:00N 39°35' W 075°36'0 0.0
2018-Jul-14 03:30N 39°35' W 075°36'0 0.0
2018-Jul-14 03:00N 39°35' W 075°36'0 0.0
2018-Jul-14 02:30N 39°35' W 075°36'0 0.0
2018-Jul-14 02:00N 39°35' W 075°36'0 0.0
2018-Jul-14 01:30N 39°35' W 075°36'0 0.0
2018-Jul-14 01:00N 39°35' W 075°36'0 0.0
2018-Jul-14 00:30N 39°35' W 075°36'0 0.0
2018-Jul-14 00:00N 39°35' W 075°36'0 0.0
2018-Jul-13 23:30N 39°35' W 075°36'0 0.0
2018-Jul-13 23:01N 39°35' W 075°36'0 0.0
2018-Jul-13 22:30N 39°35' W 075°36'0 0.0
2018-Jul-13 22:00N 39°35' W 075°36'0 0.0
2018-Jul-13 21:30N 39°35' W 075°36'0 0.0
2018-Jul-13 21:00N 39°35' W 075°36'0 0.0
2018-Jul-13 20:30N 39°35' W 075°36'0 0.0
2018-Jul-13 20:00N 39°35' W 075°36'0 0.0
2018-Jul-13 19:30N 39°35' W 075°36'0 0.0
2018-Jul-13 19:00N 39°35' W 075°36'0 0.8
2018-Jul-13 18:30N 39°35' W 075°35'3 5.8
2018-Jul-13 18:00N 39°33' W 075°33'4 7.2
2018-Jul-13 17:30N 39°29' W 075°34'4 7.6
2018-Jul-13 17:00N 39°26' W 075°32'5 9.1
2018-Jul-13 16:30N 39°22' W 075°28'510.3
2018-Jul-13 16:00N 39°19' W 075°23'510.4
2018-Jul-13 15:30N 39°15' W 075°19'510.2
2018-Jul-13 14:59N 39°10' W 075°16'710.0
2018-Jul-13 14:15N 39°04' W 075°10'810.1
2018-Jul-13 13:25N 38°56' W 075°06'510.5
2018-Jul-13 12:58N 38°52' W 075°04'510.1
2018-Jul-13 12:30N 38°48' W 074°60'510.0
2018-Jul-13 12:00N 38°49' W 074°53'5 9.4
2018-Jul-13 11:29N 38°52' W 074°48'5 9.6
2018-Jul-13 11:00N 38°56' W 074°45'5 9.5
2018-Jul-13 10:30N 38°60' W 074°41'5 9.5
2018-Jul-13 10:00N 39°03' W 074°36'5 9.4
2018-Jul-13 09:30N 39°06' W 074°32'5 9.4
2018-Jul-13 09:00N 39°10' W 074°28'5 9.3
2018-Jul-13 08:30N 39°13' W 074°24'5 9.3
2018-Jul-13 08:00N 39°17' W 074°21'5 9.2
2018-Jul-13 07:30N 39°21' W 074°17'5 9.1
2018-Jul-13 07:00N 39°24' W 074°13'5 9.1
2018-Jul-13 06:30N 39°28' W 074°10'4 9.1
2018-Jul-13 06:00N 39°32' W 074°08'5 9.1
2018-Jul-13 05:30N 39°36' W 074°05'5 9.2
2018-Jul-13 05:00N 39°40' W 074°02'5 9.1
2018-Jul-13 04:30N 39°44' W 073°59'4 8.9
2018-Jul-13 04:00N 39°49' W 073°58'5 9.0
2018-Jul-13 03:30N 39°53' W 073°58'5 9.1
2018-Jul-13 03:00N 39°58' W 073°57'5 9.2
2018-Jul-13 02:30N 40°02' W 073°56'  
Track history (hours):
 
Tides and Currents Weather Stations Pressure Air Temp Water Temp Dewpoint Dewpoint Depression Visibility Wind Speed Wind Dir Waves Ship Positions

Genesis Eagle

Owner: Genesis Marine, LLC, Houston, TX. More information available from US FCC via Universal Licensing System and Coast Guard Vessel Documentation Center.

Last reported at 2018-Jul-23 01:53 UTC. Time now 2018-Jul-23 07:36 UTC.
Position N 39°44' W 073°60'.

Length 35 m; draft 8.3 m.

Type: Tug. MMSI: 338131000.

Date/timePositionNaut miles runAvg speedWind from/ knotsBaromVisibWave heightAir tempDewpointWater temp
2018-Jul-23 01:53N 39°44' W 073°60'4 8.8
2018-Jul-23 01:29N 39°40' W 074°01'4 8.8
2018-Jul-23 01:00N 39°36' W 074°03'4 8.9
2018-Jul-23 00:30N 39°32' W 074°06'65 5.1
2018-Jul-22 11:46N 39°24' W 075°30'4 8.3
2018-Jul-22 11:19N 39°27' W 075°33'2 7.7
2018-Jul-22 11:01N 39°29' W 075°34'4 7.9
2018-Jul-22 10:30N 39°33' W 075°33'4 7.8
2018-Jul-22 10:00N 39°36' W 075°34'4 7.3
2018-Jul-22 09:30N 39°40' W 075°32'4 7.9
2018-Jul-22 08:59N 39°44' W 075°30'4 8.2
2018-Jul-22 08:29N 39°47' W 075°28'4 8.7
2018-Jul-22 08:00N 39°49' W 075°23'4 8.1
2018-Jul-22 07:30N 39°51' W 075°18'2 3.0
2018-Jul-22 07:00N 39°51' W 075°16'0 0.0
2018-Jul-22 06:30N 39°51' W 075°16'0 0.0
2018-Jul-22 06:00N 39°51' W 075°16'0 0.0
2018-Jul-22 05:27N 39°51' W 075°16'0 0.0
2018-Jul-22 05:00N 39°51' W 075°16'0 0.0
2018-Jul-22 04:27N 39°51' W 075°16'0 0.0
2018-Jul-22 04:00N 39°51' W 075°16'0 0.0
2018-Jul-22 03:27N 39°51' W 075°16'0 0.0
2018-Jul-22 03:00N 39°51' W 075°16'0 0.0
2018-Jul-22 02:30N 39°51' W 075°16'0 0.0
2018-Jul-22 02:00N 39°51' W 075°16'0 0.0
2018-Jul-22 01:30N 39°51' W 075°16'0 0.0
2018-Jul-22 01:00N 39°51' W 075°16'0 0.0
2018-Jul-22 00:30N 39°51' W 075°16'0 0.0
2018-Jul-22 00:00N 39°51' W 075°16'0 0.0
2018-Jul-21 23:30N 39°51' W 075°16'0 0.0
2018-Jul-21 23:00N 39°51' W 075°16'0 0.0
2018-Jul-21 22:27N 39°51' W 075°16'0 0.0
2018-Jul-21 22:00N 39°51' W 075°16'0 0.0
2018-Jul-21 21:24N 39°51' W 075°16'0 0.0
2018-Jul-21 21:00N 39°51' W 075°16'0 0.0
2018-Jul-21 20:30N 39°51' W 075°16'0 0.0
2018-Jul-21 20:00N 39°51' W 075°16'0 0.0
2018-Jul-21 19:30N 39°51' W 075°16'0 0.0
2018-Jul-21 19:00N 39°51' W 075°16'0 0.0
2018-Jul-21 18:30N 39°51' W 075°16'0 0.0
2018-Jul-21 18:00N 39°51' W 075°16'0 0.0
2018-Jul-21 17:30N 39°51' W 075°16'0 0.0
2018-Jul-21 17:00N 39°51' W 075°16'0 0.0
2018-Jul-21 16:30N 39°51' W 075°16'0 0.0
2018-Jul-21 16:00N 39°51' W 075°16'0 0.0
2018-Jul-21 15:30N 39°51' W 075°16'0 0.0
2018-Jul-21 15:00N 39°51' W 075°16'0 0.0
2018-Jul-21 14:30N 39°51' W 075°16'0 0.0
2018-Jul-21 13:30N 39°51' W 075°16'0 0.0
2018-Jul-21 13:00N 39°51' W 075°16'0 0.0
2018-Jul-21 12:30N 39°51' W 075°16'0 0.0
2018-Jul-21 12:00N 39°51' W 075°16'0 0.0
2018-Jul-21 11:30N 39°51' W 075°16'0 0.0
2018-Jul-21 11:00N 39°51' W 075°16'0 0.0
2018-Jul-21 10:30N 39°51' W 075°16'0 0.0
2018-Jul-21 10:00N 39°51' W 075°16'0 0.0
2018-Jul-21 09:30N 39°51' W 075°16'0 0.0
2018-Jul-21 08:57N 39°51' W 075°16'0 0.0
2018-Jul-21 08:30N 39°51' W 075°16'0 0.0
2018-Jul-21 08:00N 39°51' W 075°16'0 0.0
2018-Jul-21 07:30N 39°51' W 075°16'0 0.0
2018-Jul-21 07:00N 39°51' W 075°16'0 0.0
2018-Jul-21 06:30N 39°51' W 075°16'0 0.0
2018-Jul-21 06:00N 39°51' W 075°16'0 0.0
2018-Jul-21 05:30N 39°51' W 075°16'0 0.0
2018-Jul-21 05:00N 39°51' W 075°16'0 0.0
2018-Jul-21 04:30N 39°51' W 075°16'0 0.0
2018-Jul-21 04:00N 39°51' W 075°16'0 0.0
2018-Jul-21 03:30N 39°51' W 075°16'0 0.0
2018-Jul-21 03:00N 39°51' W 075°16'0 0.0
2018-Jul-21 02:30N 39°51' W 075°16'0 0.0
2018-Jul-21 02:00N 39°51' W 075°16'0 0.0
2018-Jul-21 01:30N 39°51' W 075°16'0 0.0
2018-Jul-21 01:00N 39°51' W 075°16'0 0.0
2018-Jul-21 00:30N 39°51' W 075°16'0 0.0
2018-Jul-21 00:00N 39°51' W 075°16'0 0.0
2018-Jul-20 23:30N 39°51' W 075°16'0 0.0
2018-Jul-20 23:00N 39°51' W 075°16'0 0.0
2018-Jul-20 22:30N 39°51' W 075°16'0 0.0
2018-Jul-20 22:00N 39°51' W 075°16'0 0.0
2018-Jul-20 21:30N 39°51' W 075°16'0 0.0
2018-Jul-20 21:00N 39°51' W 075°16'0 0.0
2018-Jul-20 20:30N 39°51' W 075°16'0 0.0
2018-Jul-20 20:00N 39°51' W 075°16'0 0.0
2018-Jul-20 19:30N 39°51' W 075°16'0 0.0
2018-Jul-20 19:00N 39°51' W 075°16'3 5.7
2018-Jul-20 18:30N 39°51' W 075°20'3 6.4
2018-Jul-20 18:00N 39°49' W 075°23'4 7.8
2018-Jul-20 17:26N 39°46' W 075°28'3 7.9
2018-Jul-20 17:00N 39°43' W 075°30'4 7.5
2018-Jul-20 16:30N 39°40' W 075°32'4 7.2
2018-Jul-20 16:00N 39°37' W 075°35'4 7.7
2018-Jul-20 15:30N 39°33' W 075°33'4 7.2
2018-Jul-20 15:00N 39°30' W 075°33'3 6.8
2018-Jul-20 14:30N 39°27' W 075°33'4 7.3
2018-Jul-20 14:00N 39°24' W 075°30'4 7.4
2018-Jul-20 13:30N 39°21' W 075°26'4 7.5
2018-Jul-20 13:01N 39°18' W 075°23'4 7.6
2018-Jul-20 12:30N 39°15' W 075°20'4 7.9
2018-Jul-20 12:00N 39°12' W 075°17'4 8.3
2018-Jul-20 11:30N 39°09' W 075°14'5 8.4
2018-Jul-20 10:56N 39°05' W 075°11'4 8.5
2018-Jul-20 10:29N 39°01' W 075°09'5 8.4
2018-Jul-20 09:52N 38°56' W 075°06'4 9.0
2018-Jul-20 09:23N 38°52' W 075°04'3 8.6
2018-Jul-20 08:59N 38°49' W 075°02'5 8.5
2018-Jul-20 08:24N 38°49' W 074°56'4 9.4
2018-Jul-20 07:57N 38°50' W 074°51'4 9.2
2018-Jul-20 07:29N 38°53' W 074°47'5 9.8
2018-Jul-20 06:59N 38°57' W 074°43'5 9.6
2018-Jul-20 06:30N 39°01' W 074°39'5 9.6
2018-Jul-20 06:00N 39°04' W 074°35'6 9.4
2018-Jul-20 05:23N 39°09' W 074°30'4 9.4
2018-Jul-20 05:00N 39°12' W 074°28'6 9.2
2018-Jul-20 04:21N 39°16' W 074°23'14 8.8
2018-Jul-20 02:48N 39°28' W 074°13'6 9.5
2018-Jul-20 02:08N 39°33' W 074°09'1 9.3
2018-Jul-20 02:01N 39°34' W 074°08'5 9.6
2018-Jul-20 01:27N 39°39' W 074°04'5 9.3
2018-Jul-20 00:57N 39°42' W 074°01'5 9.0
2018-Jul-20 00:23N 39°47' W 073°58'197 8.7
2018-Jul-19 01:48N 41°46' W 070°31'17 8.0
2018-Jul-18 23:40N 42°03' W 070°30'2 9.3
2018-Jul-18 23:27N 42°06' W 070°31'6 9.5
2018-Jul-18 22:50N 42°11' W 070°34'5 9.7
2018-Jul-18 22:22N 42°14' W 070°37'5 9.7
2018-Jul-18 21:51N 42°18' W 070°42'4 9.4
2018-Jul-18 21:28N 42°21' W 070°45'4 8.8
2018-Jul-18 21:00N 42°23' W 070°50'9 6.9
2018-Jul-18 19:39N 42°22' W 071°03'1 5.4
2018-Jul-18 19:30N 42°23' W 071°03'1 0.1
2018-Jul-18 13:27N 42°23' W 071°01'0 0.0
2018-Jul-18 12:42N 42°23' W 071°01'0 0.0
2018-Jul-18 11:33N 42°23' W 071°01'0 0.1
2018-Jul-18 11:30N 42°23' W 071°01'0 0.0
2018-Jul-18 10:28N 42°23' W 071°01'0 0.0
2018-Jul-18 09:59N 42°23' W 071°01'0 0.0
2018-Jul-18 08:23N 42°23' W 071°01'0 0.0
2018-Jul-18 07:54N 42°23' W 071°01'0 0.0
2018-Jul-18 07:29N 42°23' W 071°01'0 0.0
2018-Jul-18 03:32N 42°23' W 071°01'0 0.1
2018-Jul-18 03:29N 42°23' W 071°01'0 0.0
2018-Jul-18 03:00N 42°23' W 071°01'0 0.0
2018-Jul-18 02:26N 42°23' W 071°01'0 0.0
2018-Jul-17 23:28N 42°23' W 071°01'0 0.0
2018-Jul-17 22:59N 42°23' W 071°01'0 0.0
2018-Jul-17 22:25N 42°23' W 071°01'0 0.0
2018-Jul-17 21:59N 42°23' W 071°01'0 0.0
2018-Jul-17 21:30N 42°23' W 071°01'0 0.0
2018-Jul-17 21:00N 42°23' W 071°01'0 0.0
2018-Jul-17 20:30N 42°23' W 071°01'0 0.0
2018-Jul-17 20:00N 42°23' W 071°01'1 1.6
2018-Jul-17 19:30N 42°24' W 071°01'2 3.1
2018-Jul-17 19:00N 42°23' W 071°03'3 5.5
2018-Jul-17 18:30N 42°21' W 071°01'4 7.2
2018-Jul-17 18:00N 42°21' W 070°56'4 7.8
2018-Jul-17 17:30N 42°23' W 070°51'4 8.1
2018-Jul-17 17:00N 42°22' W 070°46'32 8.2
2018-Jul-17 13:02N 42°09' W 070°06'2 7.2
2018-Jul-17 12:46N 42°08' W 070°04'2 6.8
2018-Jul-17 12:30N 42°08' W 070°01'43 7.6
2018-Jul-17 06:50N 41°32' W 069°29'4 8.4
2018-Jul-17 06:21N 41°29' W 069°26'3 8.2
2018-Jul-17 06:00N 41°26' W 069°24'6 8.9
2018-Jul-17 05:21N 41°21' W 069°21'299 7.4
2018-Jul-15 13:12N 38°46' W 074°55'3 7.5
2018-Jul-15 12:46N 38°47' W 074°59'2 7.5
2018-Jul-15 12:30N 38°47' W 075°01'4 7.2
2018-Jul-15 12:00N 38°50' W 075°04'4 7.9
2018-Jul-15 11:30N 38°54' W 075°05'4 8.1
2018-Jul-15 11:00N 38°58' W 075°07'5 8.9
2018-Jul-15 10:29N 39°02' W 075°09'5 9.8
2018-Jul-15 10:00N 39°06' W 075°12'610.6
2018-Jul-15 09:28N 39°11' W 075°16'510.9
2018-Jul-15 09:00N 39°15' W 075°20'510.3
2018-Jul-15 08:31N 39°19' W 075°24'510.5
2018-Jul-15 08:01N 39°23' W 075°29'5 9.7
2018-Jul-15 07:30N 39°27' W 075°33'4 8.5
2018-Jul-15 07:00N 39°31' W 075°33'4 7.0
2018-Jul-15 06:30N 39°34' W 075°34'2 3.4
2018-Jul-15 06:00N 39°35' W 075°36'0 0.0
2018-Jul-15 05:30N 39°35' W 075°36'0 0.0
2018-Jul-15 05:00N 39°35' W 075°36'0 0.0
2018-Jul-15 04:30N 39°35' W 075°36'0 0.0
2018-Jul-15 04:00N 39°35' W 075°36'0 0.0
2018-Jul-15 03:30N 39°35' W 075°36'0 0.0
2018-Jul-15 03:00N 39°35' W 075°36'0 0.0
2018-Jul-15 02:30N 39°35' W 075°36'0 0.0
2018-Jul-15 02:00N 39°35' W 075°36'0 0.0
2018-Jul-15 01:30N 39°35' W 075°36'0 0.0
2018-Jul-15 01:01N 39°35' W 075°36'0 0.0
2018-Jul-15 00:31N 39°35' W 075°36'0 0.0
2018-Jul-15 00:00N 39°35' W 075°36'0 0.0
2018-Jul-14 23:31N 39°35' W 075°36'0 0.0
2018-Jul-14 23:01N 39°35' W 075°36'0 0.0
2018-Jul-14 22:30N 39°35' W 075°36'0 0.0
2018-Jul-14 22:01N 39°35' W 075°36'0 0.0
2018-Jul-14 21:30N 39°35' W 075°36'0 0.0
2018-Jul-14 21:00N 39°35' W 075°36'0 0.0
2018-Jul-14 20:31N 39°35' W 075°36'0 0.0
2018-Jul-14 20:01N 39°35' W 075°36'0 0.0
2018-Jul-14 19:31N 39°35' W 075°36'0 0.0
2018-Jul-14 19:01N 39°35' W 075°36'0 0.0
2018-Jul-14 18:31N 39°35' W 075°36'0 0.0
2018-Jul-14 18:00N 39°35' W 075°36'0 0.0
2018-Jul-14 17:30N 39°35' W 075°36'0 0.0
2018-Jul-14 17:00N 39°35' W 075°36'0 0.0
2018-Jul-14 16:31N 39°35' W 075°36'0 0.0
2018-Jul-14 16:00N 39°35' W 075°36'0 0.0
2018-Jul-14 15:31N 39°35' W 075°36'0 0.0
2018-Jul-14 15:00N 39°35' W 075°36'0 0.0
2018-Jul-14 14:31N 39°35' W 075°36'0 0.0
2018-Jul-14 13:30N 39°35' W 075°36'0 0.0
2018-Jul-14 13:00N 39°35' W 075°36'0 0.0
2018-Jul-14 12:30N 39°35' W 075°36'0 0.0
2018-Jul-14 12:00N 39°35' W 075°36'0 0.0
2018-Jul-14 11:30N 39°35' W 075°36'0 0.0
2018-Jul-14 11:00N 39°35' W 075°36'0 0.0
2018-Jul-14 10:30N 39°35' W 075°36'0 0.0
2018-Jul-14 10:00N 39°35' W 075°36'0 0.0
2018-Jul-14 09:30N 39°35' W 075°36'0 0.0
2018-Jul-14 09:00N 39°35' W 075°36'0 0.0
2018-Jul-14 08:30N 39°35' W 075°36'0 0.0
2018-Jul-14 08:00N 39°35' W 075°36'0 0.0
2018-Jul-14 07:30N 39°35' W 075°36'0 0.0
2018-Jul-14 07:00N 39°35' W 075°36'0 0.0
2018-Jul-14 06:30N 39°35' W 075°36'0 0.0
2018-Jul-14 06:00N 39°35' W 075°36'0 0.0
2018-Jul-14 05:30N 39°35' W 075°36'0 0.0
2018-Jul-14 05:00N 39°35' W 075°36'0 0.0
2018-Jul-14 04:30N 39°35' W 075°36'0 0.0
2018-Jul-14 04:00N 39°35' W 075°36'0 0.0
2018-Jul-14 03:30N 39°35' W 075°36'0 0.0
2018-Jul-14 03:00N 39°35' W 075°36'0 0.0
2018-Jul-14 02:30N 39°35' W 075°36'0 0.0
2018-Jul-14 02:00N 39°35' W 075°36'0 0.0
2018-Jul-14 01:30N 39°35' W 075°36'0 0.0
2018-Jul-14 01:00N 39°35' W 075°36'0 0.0
2018-Jul-14 00:30N 39°35' W 075°36'0 0.0
2018-Jul-14 00:00N 39°35' W 075°36'0 0.0
2018-Jul-13 23:30N 39°35' W 075°36'0 0.0
2018-Jul-13 23:01N 39°35' W 075°36'0 0.0
2018-Jul-13 22:30N 39°35' W 075°36'0 0.0
2018-Jul-13 22:00N 39°35' W 075°36'0 0.0
2018-Jul-13 21:30N 39°35' W 075°36'0 0.0
2018-Jul-13 21:00N 39°35' W 075°36'0 0.0
2018-Jul-13 20:30N 39°35' W 075°36'0 0.0
2018-Jul-13 20:00N 39°35' W 075°36'0 0.0
2018-Jul-13 19:30N 39°35' W 075°36'0 0.0
2018-Jul-13 19:00N 39°35' W 075°36'0 0.8
2018-Jul-13 18:30N 39°35' W 075°35'3 5.8
2018-Jul-13 18:00N 39°33' W 075°33'4 7.2
2018-Jul-13 17:30N 39°29' W 075°34'4 7.6
2018-Jul-13 17:00N 39°26' W 075°32'5 9.1
2018-Jul-13 16:30N 39°22' W 075°28'510.3
2018-Jul-13 16:00N 39°19' W 075°23'510.4
2018-Jul-13 15:30N 39°15' W 075°19'510.2
2018-Jul-13 14:59N 39°10' W 075°16'710.0
2018-Jul-13 14:15N 39°04' W 075°10'810.1
2018-Jul-13 13:25N 38°56' W 075°06'510.5
2018-Jul-13 12:58N 38°52' W 075°04'510.1
2018-Jul-13 12:30N 38°48' W 074°60'510.0
2018-Jul-13 12:00N 38°49' W 074°53'5 9.4
2018-Jul-13 11:29N 38°52' W 074°48'5 9.6
2018-Jul-13 11:00N 38°56' W 074°45'5 9.5
2018-Jul-13 10:30N 38°60' W 074°41'5 9.5
2018-Jul-13 10:00N 39°03' W 074°36'5 9.4
2018-Jul-13 09:30N 39°06' W 074°32'5 9.4
2018-Jul-13 09:00N 39°10' W 074°28'5 9.3
2018-Jul-13 08:30N 39°13' W 074°24'5 9.3
2018-Jul-13 08:00N 39°17' W 074°21'5 9.2
2018-Jul-13 07:30N 39°21' W 074°17'5 9.1
2018-Jul-13 07:00N 39°24' W 074°13'5 9.1
2018-Jul-13 06:30N 39°28' W 074°10'4 9.1
2018-Jul-13 06:00N 39°32' W 074°08'5 9.1
2018-Jul-13 05:30N 39°36' W 074°05'5 9.2
2018-Jul-13 05:00N 39°40' W 074°02'5 9.1
2018-Jul-13 04:30N 39°44' W 073°59'4 8.9
2018-Jul-13 04:00N 39°49' W 073°58'5 9.0
2018-Jul-13 03:30N 39°53' W 073°58'5 9.1
2018-Jul-13 03:00N 39°58' W 073°57'5 9.2
2018-Jul-13 02:30N 40°02' W 073°56'  

Dump ship's entire track history